createdAt,value
2023-04-18T00:01:42.114Z,100582.19
2023-04-18T00:04:10.054Z,100569.09
2023-04-18T00:06:37.763Z,100575.34
2023-04-18T00:09:05.558Z,100579.69
2023-04-18T00:11:33.197Z,100562.06
2023-04-18T00:14:00.829Z,100567.66
2023-04-18T00:16:28.459Z,100557.78
2023-04-18T00:18:57.202Z,100585.91
2023-04-18T00:21:25.844Z,100569.91
2023-04-18T00:23:53.519Z,100560.69
2023-04-18T00:26:21.036Z,100560.56
2023-04-18T00:28:51.322Z,100552.09
2023-04-18T00:31:18.857Z,100548.59
2023-04-18T00:33:46.484Z,100566.09
2023-04-18T00:36:14.034Z,100548.25
2023-04-18T00:38:42.459Z,100560.81
2023-04-18T00:41:10.065Z,100562.63
2023-04-18T00:43:37.800Z,100545.69
2023-04-18T00:46:05.538Z,100551.13
2023-04-18T00:48:33.695Z,100539.72
2023-04-18T00:51:01.473Z,100540.06
2023-04-18T00:53:29.598Z,100549.47
2023-04-18T00:55:57.654Z,100539.91
2023-04-18T00:58:26.421Z,100548.88
2023-04-18T01:00:54.762Z,100531.16
2023-04-18T01:03:23.062Z,100549.53
2023-04-18T01:05:50.806Z,100544.09
2023-04-18T01:08:19.370Z,100550.84
2023-04-18T01:10:47.391Z,100556.09
2023-04-18T01:13:20.091Z,100549.28
2023-04-18T01:15:50.087Z,100548.47
2023-04-18T01:18:19.141Z,100548.34
2023-04-18T01:20:49.410Z,100544.28
2023-04-18T01:23:18.409Z,100547.72
2023-04-18T01:25:47.499Z,100540.25
2023-04-18T01:28:15.518Z,100530.19
2023-04-18T01:30:43.103Z,100548.63
2023-04-18T01:33:10.828Z,100538.66
2023-04-18T01:35:38.378Z,100532.66
2023-04-18T01:38:06.015Z,100524.19
2023-04-18T01:40:34.541Z,100533.38
2023-04-18T01:43:02.219Z,100541.63
2023-04-18T01:45:29.756Z,100526.44
2023-04-18T01:47:57.368Z,100528.94
2023-04-18T01:50:25.147Z,100518.84
2023-04-18T01:52:52.693Z,100511.97
2023-04-18T01:55:20.467Z,100524.53
2023-04-18T01:57:48.038Z,100518.38
2023-04-18T02:00:15.889Z,100520.66
2023-04-18T02:02:44.028Z,100527.13
2023-04-18T02:05:11.994Z,100503.50
2023-04-18T02:07:41.183Z,100526.31
2023-04-18T02:10:11.080Z,100509.84
2023-04-18T02:12:38.992Z,100532.03
2023-04-18T02:15:07.200Z,100526.00
2023-04-18T02:17:36.882Z,100525.25
2023-04-18T02:20:04.922Z,100533.31
2023-04-18T02:22:32.525Z,100521.72
2023-04-18T02:25:02.486Z,100516.09
2023-04-18T02:27:31.859Z,100517.44
2023-04-18T02:29:59.451Z,100516.47
2023-04-18T02:32:27.001Z,100526.31
2023-04-18T02:34:54.609Z,100507.16
2023-04-18T02:37:22.175Z,100515.78
2023-04-18T02:39:49.701Z,100518.44
2023-04-18T02:42:17.316Z,100506.41
2023-04-18T02:44:44.836Z,100522.66
2023-04-18T02:47:12.405Z,100509.31
2023-04-18T02:49:42.526Z,100522.31
2023-04-18T02:52:10.137Z,100527.56
2023-04-18T02:54:37.734Z,100522.13
2023-04-18T02:57:10.665Z,100518.25
2023-04-18T02:59:57.438Z,100505.47
2023-04-18T03:02:36.825Z,100526.28
2023-04-18T03:05:19.893Z,100517.50
2023-04-18T03:07:47.742Z,100505.03
2023-04-18T03:10:15.384Z,100527.88
2023-04-18T03:12:43.042Z,100505.91
2023-04-18T03:15:11.849Z,100518.25
2023-04-18T03:17:39.555Z,100516.19
2023-04-18T03:20:08.078Z,100516.97
2023-04-18T03:22:35.745Z,100506.50
2023-04-18T03:25:03.757Z,100516.84
2023-04-18T03:27:47.425Z,100505.22
2023-04-18T03:30:17.929Z,100504.22
2023-04-18T03:32:52.955Z,100518.31
2023-04-18T03:35:20.848Z,100511.34
2023-04-18T03:37:48.448Z,100497.09
2023-04-18T03:40:24.120Z,100523.53
2023-04-18T03:42:54.272Z,100508.78
2023-04-18T03:45:21.869Z,100514.72
2023-04-18T03:47:50.467Z,100517.38
2023-04-18T03:50:18.694Z,100513.50
2023-04-18T03:52:48.157Z,100504.44
2023-04-18T03:55:18.030Z,100517.63
2023-04-18T03:57:46.283Z,100505.66
2023-04-18T04:00:20.904Z,100510.31
2023-04-18T04:02:58.960Z,100489.47
2023-04-18T04:05:26.846Z,100501.09
2023-04-18T04:07:54.467Z,100522.78
2023-04-18T04:10:22.154Z,100498.94
2023-04-18T04:12:50.699Z,100519.38
2023-04-18T04:15:18.851Z,100512.44
2023-04-18T04:18:12.445Z,100516.88
2023-04-18T04:20:45.936Z,100514.44
2023-04-18T04:23:18.884Z,100518.31
2023-04-18T04:25:49.069Z,100510.91
2023-04-18T04:28:36.585Z,100524.00
2023-04-18T04:31:08.316Z,100520.84
2023-04-18T04:33:39.028Z,100513.03
2023-04-18T04:36:16.674Z,100524.13
2023-04-18T04:38:47.387Z,100520.59
2023-04-18T04:41:15.619Z,100529.25
2023-04-18T04:43:43.402Z,100511.91
2023-04-18T04:46:14.875Z,100516.38
2023-04-18T04:48:43.672Z,100525.94
2023-04-18T04:51:11.238Z,100515.75
2023-04-18T04:53:39.072Z,100531.19
2023-04-18T04:56:07.966Z,100522.78
2023-04-18T04:58:36.266Z,100550.22
2023-04-18T05:01:08.024Z,100556.28
2023-04-18T05:03:37.439Z,100536.19
2023-04-18T05:06:05.838Z,100534.88
2023-04-18T05:08:33.403Z,100537.09
2023-04-18T05:11:02.160Z,100544.94
2023-04-18T05:13:29.632Z,100547.00
2023-04-18T05:15:59.324Z,100543.41
2023-04-18T05:18:26.891Z,100543.81
2023-04-18T05:20:55.856Z,100557.19
2023-04-18T05:23:23.348Z,100548.22
2023-04-18T05:25:51.004Z,100558.63
2023-04-18T05:28:18.592Z,100553.03
2023-04-18T05:30:46.131Z,100555.63
2023-04-18T05:33:13.703Z,100568.53
2023-04-18T05:35:41.307Z,100568.84
2023-04-18T05:38:27.465Z,100564.03
2023-04-18T05:40:55.890Z,100549.59
2023-04-18T05:43:23.666Z,100562.44
2023-04-18T05:45:52.751Z,100571.91
2023-04-18T05:48:21.573Z,100575.97
2023-04-18T05:50:49.137Z,100561.78
2023-04-18T05:53:16.742Z,100577.63
2023-04-18T05:55:46.531Z,100579.91
2023-04-18T05:58:14.512Z,100582.88
2023-04-18T06:00:43.321Z,100588.38
2023-04-18T06:03:11.536Z,100583.78
2023-04-18T06:05:41.057Z,100563.31
2023-04-18T06:08:08.865Z,100587.47
2023-04-18T06:10:38.503Z,100584.47
2023-04-18T06:13:06.775Z,100595.53
2023-04-18T06:15:34.941Z,100590.72
2023-04-18T06:18:02.650Z,100601.13
2023-04-18T06:20:30.508Z,100599.59
2023-04-18T06:22:58.092Z,100601.72
2023-04-18T06:25:25.973Z,100598.97
2023-04-18T06:27:53.638Z,100586.16
2023-04-18T06:30:22.249Z,100589.00
2023-04-18T06:32:49.992Z,100586.03
2023-04-18T06:35:17.945Z,100590.59
2023-04-18T06:37:45.912Z,100597.69
2023-04-18T06:40:13.780Z,100595.66
2023-04-18T06:42:42.688Z,100593.63
2023-04-18T06:45:11.913Z,100592.41
2023-04-18T06:47:40.848Z,100598.03
2023-04-18T06:50:09.356Z,100593.44
2023-04-18T06:52:40.676Z,100597.84
2023-04-18T06:55:09.407Z,100594.75
2023-04-18T06:57:41.532Z,100600.91
2023-04-18T07:00:10.716Z,100602.53
2023-04-18T07:02:39.914Z,100604.34
2023-04-18T07:05:08.529Z,100604.22
2023-04-18T07:07:36.152Z,100600.16
2023-04-18T07:10:04.396Z,100601.34
2023-04-18T07:12:32.073Z,100607.56
2023-04-18T07:14:59.617Z,100592.97
2023-04-18T07:17:27.154Z,100604.03
2023-04-18T07:19:54.714Z,100605.75
2023-04-18T07:22:22.240Z,100607.94
2023-04-18T07:24:49.823Z,100604.44
2023-04-18T07:27:17.376Z,100603.56
2023-04-18T07:29:44.940Z,100607.69
2023-04-18T07:32:12.549Z,100605.97
2023-04-18T07:34:40.498Z,100605.06
2023-04-18T07:37:08.173Z,100609.53
2023-04-18T07:39:36.262Z,100601.25
2023-04-18T07:42:04.741Z,100601.75
2023-04-18T07:44:32.339Z,100605.91
2023-04-18T07:47:00.036Z,100610.06
2023-04-18T07:49:27.676Z,100602.44
2023-04-18T07:51:56.003Z,100615.00
2023-04-18T07:54:23.766Z,100615.03
2023-04-18T07:56:51.447Z,100616.34
2023-04-18T07:59:19.179Z,100618.66
2023-04-18T08:01:46.956Z,100618.94
2023-04-18T08:04:15.190Z,100616.66
2023-04-18T08:06:42.824Z,100630.75
2023-04-18T08:09:10.681Z,100621.09
2023-04-18T08:11:39.064Z,100623.59
2023-04-18T08:14:06.624Z,100618.84
2023-04-18T08:16:34.186Z,100626.19
2023-04-18T08:19:01.787Z,100623.06
2023-04-18T08:21:29.430Z,100628.34
2023-04-18T08:23:57.130Z,100632.56
2023-04-18T08:26:24.756Z,100635.75
2023-04-18T08:28:52.272Z,100637.44
2023-04-18T08:31:19.885Z,100646.22
2023-04-18T08:33:47.437Z,100645.78
2023-04-18T08:36:15.036Z,100651.19
2023-04-18T08:38:42.557Z,100641.75
2023-04-18T08:41:10.113Z,100645.94
2023-04-18T08:43:38.365Z,100652.09
2023-04-18T08:46:06.549Z,100642.69
2023-04-18T08:48:34.255Z,100643.91
2023-04-18T08:51:02.278Z,100645.63
2023-04-18T08:53:32.525Z,100656.69
2023-04-18T08:56:01.633Z,100652.81
2023-04-18T08:58:32.381Z,100655.44
2023-04-18T09:01:00.191Z,100657.06
2023-04-18T09:03:41.199Z,100655.44
2023-04-18T09:06:16.141Z,100653.91
2023-04-18T09:08:44.482Z,100646.00
2023-04-18T09:11:29.275Z,100647.06
2023-04-18T09:13:59.015Z,100643.91
2023-04-18T09:16:28.090Z,100645.75
2023-04-18T09:19:14.011Z,100651.03
2023-04-18T09:21:46.307Z,100649.25
2023-04-18T09:24:22.504Z,100636.56
2023-04-18T09:26:51.402Z,100637.94
2023-04-18T09:29:22.545Z,100634.91
2023-04-18T09:32:01.575Z,100640.25
2023-04-18T09:34:29.398Z,100638.84
2023-04-18T09:37:11.715Z,100634.56
2023-04-18T09:39:41.383Z,100632.09
2023-04-18T09:42:10.498Z,100633.31
2023-04-18T09:44:49.696Z,100640.25
2023-04-18T09:47:17.185Z,100633.06
2023-04-18T09:49:44.681Z,100638.88
2023-04-18T09:52:12.176Z,100638.00
2023-04-18T09:54:39.750Z,100639.09
2023-04-18T09:57:11.540Z,100641.38
2023-04-18T09:59:42.311Z,100642.25
2023-04-18T10:02:22.196Z,100642.88
2023-04-18T10:04:51.681Z,100640.31
2023-04-18T10:07:20.953Z,100643.22
2023-04-18T10:09:50.034Z,100636.81
2023-04-18T10:12:18.797Z,100634.09
2023-04-18T10:14:46.804Z,100631.66
2023-04-18T10:17:15.591Z,100648.31
2023-04-18T10:19:44.426Z,100641.88
2023-04-18T10:22:12.963Z,100640.06
2023-04-18T10:24:53.083Z,100636.59
2023-04-18T10:27:48.375Z,100630.47
2023-04-18T10:30:16.902Z,100626.03
2023-04-18T10:32:47.593Z,100629.25
2023-04-18T10:35:15.462Z,100626.00
2023-04-18T10:37:52.581Z,100619.91
2023-04-18T10:40:34.315Z,100606.03
2023-04-18T10:43:02.343Z,100614.09
2023-04-18T10:45:32.582Z,100610.75
2023-04-18T10:48:21.636Z,100616.09
2023-04-18T10:51:18.313Z,100618.09
2023-04-18T10:53:53.569Z,100617.03
2023-04-18T10:56:21.728Z,100616.34
2023-04-18T10:58:53.397Z,100598.44
2023-04-18T11:01:33.009Z,100608.66
2023-04-18T11:04:01.499Z,100600.59
2023-04-18T11:06:31.211Z,100599.19
2023-04-18T11:09:19.410Z,100594.94
2023-04-18T11:11:47.013Z,100600.50
2023-04-18T11:14:14.802Z,100577.34
2023-04-18T11:16:42.629Z,100598.47
2023-04-18T11:19:25.922Z,100597.19
2023-04-18T11:21:53.481Z,100584.41
2023-04-18T11:24:24.486Z,100589.28
2023-04-18T11:26:55.941Z,100585.09
2023-04-18T11:29:23.877Z,100574.84
2023-04-18T11:31:58.610Z,100580.09
2023-04-18T11:34:30.782Z,100575.41
2023-04-18T11:36:58.730Z,100563.09
2023-04-18T11:39:26.347Z,100568.72
2023-04-18T11:41:56.416Z,100577.91
2023-04-18T11:44:24.954Z,100580.03
2023-04-18T11:46:55.429Z,100549.97
2023-04-18T11:49:31.358Z,100572.28
2023-04-18T11:51:59.956Z,100571.81
2023-04-18T11:54:37.010Z,100580.16
2023-04-18T11:57:05.980Z,100576.16
2023-04-18T11:59:33.844Z,100580.19
2023-04-18T12:02:15.433Z,100569.13
2023-04-18T12:04:59.352Z,100591.66
2023-04-18T12:07:40.282Z,100582.31
2023-04-18T12:10:23.362Z,100581.88
2023-04-18T12:12:55.790Z,100576.84
2023-04-18T12:15:27.076Z,100575.88
2023-04-18T12:18:03.842Z,100568.34
2023-04-18T12:20:50.493Z,100582.34
2023-04-18T12:23:40.131Z,100576.94
2023-04-18T12:26:13.856Z,100570.13
2023-04-18T12:28:45.889Z,100584.00
2023-04-18T12:31:13.536Z,100564.66
2023-04-18T12:33:41.209Z,100557.94
2023-04-18T12:36:10.545Z,100576.31
2023-04-18T12:38:38.248Z,100580.28
2023-04-18T12:41:06.306Z,100576.28
2023-04-18T12:43:33.979Z,100562.75
2023-04-18T12:46:01.732Z,100573.69
2023-04-18T12:48:29.354Z,100560.19
2023-04-18T12:50:56.929Z,100577.06
2023-04-18T12:53:24.555Z,100590.88
2023-04-18T12:55:52.218Z,100577.66
2023-04-18T12:58:20.886Z,100574.53
2023-04-18T13:00:48.577Z,100580.47
2023-04-18T13:03:16.418Z,100573.53
2023-04-18T13:05:44.173Z,100567.59
2023-04-18T13:08:17.713Z,100561.88
2023-04-18T13:10:48.883Z,100570.13
2023-04-18T13:13:16.641Z,100563.44
2023-04-18T13:15:44.399Z,100552.34
2023-04-18T13:18:12.112Z,100564.22
2023-04-18T13:20:39.724Z,100557.63
2023-04-18T13:23:07.330Z,100559.88
2023-04-18T13:25:34.765Z,100572.47
2023-04-18T13:28:02.170Z,100576.91
2023-04-18T13:30:29.707Z,100566.41
2023-04-18T13:32:57.186Z,100567.59
2023-04-18T13:35:24.640Z,100557.72
2023-04-18T13:37:52.200Z,100564.69
2023-04-18T13:40:19.853Z,100560.88
2023-04-18T13:42:49.773Z,100552.09
2023-04-18T13:45:17.376Z,100561.72
2023-04-18T13:47:45.021Z,100566.41
2023-04-18T13:50:12.479Z,100564.16
2023-04-18T13:52:39.985Z,100568.34
2023-04-18T13:55:08.380Z,100567.59
2023-04-18T13:57:37.424Z,100565.44
2023-04-18T14:00:06.647Z,100570.63
2023-04-18T14:02:41.092Z,100555.50
2023-04-18T14:05:09.374Z,100566.63
2023-04-18T14:07:38.407Z,100563.81
2023-04-18T14:10:06.400Z,100568.81
2023-04-18T14:12:34.126Z,100570.94
2023-04-18T14:15:01.529Z,100565.88
2023-04-18T14:17:29.055Z,100569.44
2023-04-18T14:19:56.423Z,100566.50
2023-04-18T14:22:23.934Z,100572.72
2023-04-18T14:24:52.424Z,100569.16
2023-04-18T14:27:20.244Z,100578.59
2023-04-18T14:29:48.861Z,100575.16
2023-04-18T14:32:18.631Z,100569.22
2023-04-18T14:34:45.974Z,100572.78
2023-04-18T14:37:14.198Z,100566.91
2023-04-18T14:39:42.977Z,100573.31
2023-04-18T14:42:10.335Z,100572.66
2023-04-18T14:44:37.717Z,100565.41
2023-04-18T14:47:05.678Z,100552.44
2023-04-18T14:49:33.580Z,100550.72
2023-04-18T14:52:00.924Z,100557.97
2023-04-18T14:54:28.727Z,100558.63
2023-04-18T14:56:56.884Z,100553.53
2023-04-18T14:59:27.870Z,100549.97
2023-04-18T15:01:55.285Z,100555.38
2023-04-18T15:04:25.136Z,100548.47
2023-04-18T15:06:52.654Z,100557.03
2023-04-18T15:09:21.032Z,100552.03
2023-04-18T15:11:48.567Z,100557.56
2023-04-18T15:14:16.274Z,100550.09
2023-04-18T15:16:44.233Z,100560.13
2023-04-18T15:19:15.402Z,100558.19
2023-04-18T15:21:42.793Z,100542.19
2023-04-18T15:24:10.274Z,100558.66
2023-04-18T15:26:38.823Z,100550.81
2023-04-18T15:29:06.505Z,100535.56
2023-04-18T15:31:34.255Z,100560.50
2023-04-18T15:34:05.709Z,100564.06
2023-04-18T15:36:33.222Z,100558.31
2023-04-18T15:39:00.668Z,100547.25
2023-04-18T15:41:28.148Z,100562.50
2023-04-18T15:43:55.666Z,100565.22
2023-04-18T15:46:23.184Z,100550.38
2023-04-18T15:48:51.156Z,100559.19
2023-04-18T15:51:18.574Z,100558.53
2023-04-18T15:53:46.104Z,100559.50
2023-04-18T15:56:13.846Z,100552.16
2023-04-18T15:58:45.696Z,100567.06
2023-04-18T16:01:16.068Z,100567.06
2023-04-18T16:03:43.924Z,100561.31
2023-04-18T16:06:11.949Z,100559.59
2023-04-18T16:08:39.383Z,100571.06
2023-04-18T16:11:14.321Z,100567.47
2023-04-18T16:13:41.844Z,100569.13
2023-04-18T16:16:09.552Z,100579.53
2023-04-18T16:18:37.007Z,100579.09
2023-04-18T16:21:04.870Z,100574.44
2023-04-18T16:23:32.702Z,100590.66
2023-04-18T16:26:00.172Z,100583.59
2023-04-18T16:28:27.628Z,100572.78
2023-04-18T16:30:55.740Z,100588.44
2023-04-18T16:33:26.080Z,100594.50
2023-04-18T16:35:56.614Z,100589.53
2023-04-18T16:38:25.214Z,100585.44
2023-04-18T16:40:56.033Z,100592.88
2023-04-18T16:43:26.857Z,100585.03
2023-04-18T16:45:57.676Z,100581.16
2023-04-18T16:48:26.078Z,100591.63
2023-04-18T16:50:53.731Z,100592.13
2023-04-18T16:53:22.100Z,100603.28
2023-04-18T16:55:53.253Z,100598.16
2023-04-18T16:58:21.644Z,100607.03
2023-04-18T17:00:49.329Z,100607.25
2023-04-18T17:03:16.995Z,100600.22
2023-04-18T17:05:44.676Z,100606.44
2023-04-18T17:08:12.119Z,100603.28
2023-04-18T17:10:39.526Z,100602.63
2023-04-18T17:13:07.025Z,100616.88
2023-04-18T17:15:34.592Z,100602.91
2023-04-18T17:18:02.650Z,100592.91
2023-04-18T17:20:30.189Z,100594.22
2023-04-18T17:22:57.646Z,100602.38
2023-04-18T17:25:24.919Z,100608.97
2023-04-18T17:27:52.386Z,100608.75
2023-04-18T17:30:19.908Z,100617.06
2023-04-18T17:32:47.347Z,100619.09
2023-04-18T17:35:14.971Z,100614.56
2023-04-18T17:37:42.778Z,100624.31
2023-04-18T17:40:11.671Z,100606.69
2023-04-18T17:42:39.484Z,100625.28
2023-04-18T17:45:09.882Z,100622.13
2023-04-18T17:47:37.501Z,100632.13
2023-04-18T17:50:05.859Z,100624.81
2023-04-18T17:52:33.408Z,100633.09
2023-04-18T17:55:04.236Z,100643.44
2023-04-18T17:57:33.586Z,100629.44
2023-04-18T18:00:01.605Z,100648.44
2023-04-18T18:02:42.322Z,100645.03
2023-04-18T18:05:13.825Z,100644.25
2023-04-18T18:07:43.283Z,100651.28
2023-04-18T18:10:12.092Z,100668.97
2023-04-18T18:12:40.043Z,100659.94
2023-04-18T18:15:10.268Z,100656.56
2023-04-18T18:17:37.826Z,100664.44
2023-04-18T18:20:09.730Z,100668.00
2023-04-18T18:22:37.416Z,100670.28
2023-04-18T18:25:08.121Z,100662.47
2023-04-18T18:27:36.195Z,100669.22
2023-04-18T18:30:04.416Z,100677.47
2023-04-18T18:32:31.960Z,100681.13
2023-04-18T18:34:59.903Z,100675.72
2023-04-18T18:37:27.507Z,100687.56
2023-04-18T18:39:56.303Z,100686.28
2023-04-18T18:42:23.814Z,100698.22
2023-04-18T18:44:51.390Z,100707.84
2023-04-18T18:47:19.017Z,100717.41
2023-04-18T18:49:47.422Z,100700.28
2023-04-18T18:52:14.812Z,100716.53
2023-04-18T18:54:42.167Z,100719.25
2023-04-18T18:57:09.632Z,100722.72
2023-04-18T18:59:37.005Z,100729.66
2023-04-18T19:02:04.542Z,100730.53
2023-04-18T19:04:32.516Z,100728.63
2023-04-18T19:07:03.765Z,100736.44
2023-04-18T19:09:32.155Z,100732.41
2023-04-18T19:11:59.491Z,100745.50
2023-04-18T19:14:26.802Z,100747.44
2023-04-18T19:16:55.875Z,100743.31
2023-04-18T19:19:23.718Z,100750.34
2023-04-18T19:21:51.162Z,100741.81
2023-04-18T19:24:18.785Z,100746.88
2023-04-18T19:26:46.278Z,100760.06
2023-04-18T19:29:14.466Z,100760.34
2023-04-18T19:31:43.633Z,100760.34
2023-04-18T19:34:12.051Z,100763.72
2023-04-18T19:36:39.556Z,100767.78
2023-04-18T19:39:06.912Z,100767.06
2023-04-18T19:41:34.291Z,100781.31
2023-04-18T19:44:01.841Z,100785.50
2023-04-18T19:46:29.305Z,100792.88
2023-04-18T19:48:56.711Z,100778.72
2023-04-18T19:51:24.288Z,100789.56
2023-04-18T19:53:51.760Z,100791.03
2023-04-18T19:56:19.118Z,100778.97
2023-04-18T19:58:46.870Z,100780.06
2023-04-18T20:01:16.471Z,100789.75
2023-04-18T20:03:44.310Z,100784.38
2023-04-18T20:06:11.875Z,100791.72
2023-04-18T20:09:05.814Z,100796.13
2023-04-18T20:11:33.411Z,100803.63
2023-04-18T20:14:01.030Z,100800.63
2023-04-18T20:16:29.004Z,100798.53
2023-04-18T20:18:56.633Z,100791.69
2023-04-18T20:21:24.056Z,100807.09
2023-04-18T20:23:51.499Z,100808.06
2023-04-18T20:26:19.425Z,100807.44
2023-04-18T20:28:46.784Z,100809.97
2023-04-18T20:31:14.202Z,100813.69
2023-04-18T20:33:41.909Z,100827.25
2023-04-18T20:36:09.293Z,100820.31
2023-04-18T20:38:36.937Z,100813.03
2023-04-18T20:41:04.332Z,100817.94
2023-04-18T20:43:36.574Z,100821.59
2023-04-18T20:46:04.094Z,100823.25
2023-04-18T20:48:31.551Z,100817.16
2023-04-18T20:50:58.913Z,100815.63
2023-04-18T20:53:27.163Z,100821.88
2023-04-18T20:55:54.591Z,100817.31
2023-04-18T20:58:22.085Z,100827.13
2023-04-18T21:00:49.623Z,100819.28
2023-04-18T21:03:17.226Z,100828.94
2023-04-18T21:05:45.182Z,100835.28
2023-04-18T21:08:12.752Z,100836.53
2023-04-18T21:10:40.184Z,100848.59
2023-04-18T21:13:09.222Z,100848.34
2023-04-18T21:15:36.702Z,100845.47
2023-04-18T21:18:04.249Z,100838.69
2023-04-18T21:20:31.777Z,100848.22
2023-04-18T21:22:59.372Z,100850.25
2023-04-18T21:25:26.799Z,100841.16
2023-04-18T21:27:54.180Z,100853.19
2023-04-18T21:30:21.645Z,100851.44
2023-04-18T21:32:51.485Z,100848.19
2023-04-18T21:35:20.775Z,100840.91
2023-04-18T21:37:49.343Z,100856.16
2023-04-18T21:40:16.952Z,100862.50
2023-04-18T21:42:44.616Z,100850.94
2023-04-18T21:45:12.123Z,100851.16
2023-04-18T21:47:39.588Z,100860.97
2023-04-18T21:50:07.785Z,100846.72
2023-04-18T21:52:35.127Z,100852.44
2023-04-18T21:55:02.672Z,100851.94
2023-04-18T21:57:30.532Z,100859.88
2023-04-18T21:59:58.166Z,100855.53
2023-04-18T22:02:27.778Z,100853.72
2023-04-18T22:04:55.292Z,100849.66
2023-04-18T22:07:24.664Z,100846.47
2023-04-18T22:09:52.057Z,100855.03
2023-04-18T22:12:19.432Z,100851.41
2023-04-18T22:14:48.480Z,100853.84
2023-04-18T22:17:15.979Z,100860.06
2023-04-18T22:19:44.589Z,100855.69
2023-04-18T22:22:12.226Z,100867.44
2023-04-18T22:24:39.597Z,100879.50
2023-04-18T22:27:06.989Z,100878.72
2023-04-18T22:29:34.403Z,100868.47
2023-04-18T22:32:01.831Z,100873.25
2023-04-18T22:34:29.549Z,100868.41
2023-04-18T22:36:56.962Z,100876.88
2023-04-18T22:39:24.837Z,100875.22
2023-04-18T22:41:52.179Z,100880.47
2023-04-18T22:44:19.610Z,100869.91
2023-04-18T22:46:48.214Z,100877.16
2023-04-18T22:49:15.639Z,100865.97
2023-04-18T22:51:44.014Z,100871.25
2023-04-18T22:54:11.382Z,100880.00
2023-04-18T22:56:38.755Z,100881.44
2023-04-18T22:59:06.242Z,100865.28
2023-04-18T23:01:33.712Z,100898.34
2023-04-18T23:04:01.606Z,100886.72
2023-04-18T23:06:29.969Z,100876.13
2023-04-18T23:09:07.185Z,100887.56
2023-04-18T23:11:35.212Z,100881.50
2023-04-18T23:14:03.409Z,100880.50
2023-04-18T23:16:32.722Z,100880.56
2023-04-18T23:19:00.459Z,100882.44
2023-04-18T23:21:28.469Z,100885.84
2023-04-18T23:23:55.996Z,100885.00
2023-04-18T23:26:25.248Z,100882.25
2023-04-18T23:28:53.416Z,100879.13
2023-04-18T23:31:21.975Z,100879.53
2023-04-18T23:33:49.548Z,100883.28
2023-04-18T23:36:17.237Z,100881.91
2023-04-18T23:38:44.902Z,100882.06
2023-04-18T23:41:12.605Z,100874.00
2023-04-18T23:43:40.594Z,100874.13
2023-04-18T23:46:08.494Z,100877.78
2023-04-18T23:48:36.112Z,100868.06
2023-04-18T23:51:04.196Z,100865.47
2023-04-18T23:53:32.287Z,100862.41
2023-04-18T23:56:00.217Z,100871.47
2023-04-18T23:58:27.996Z,100864.56
